sensor_id;sensor_type;location;lat;lon;timestamp;pressure;altitude;pressure_sealevel;temperature;humidity
71109;BME280;59614;51.012;-1.648;2022-07-04T00:00:11;101347.84;;;11.33;88.38
71109;BME280;59614;51.012;-1.648;2022-07-04T00:02:41;101341.66;;;11.32;88.22
71109;BME280;59614;51.012;-1.648;2022-07-04T00:05:08;101339.91;;;11.34;88.63
71109;BME280;59614;51.012;-1.648;2022-07-04T00:07:39;101339.03;;;11.31;88.17
71109;BME280;59614;51.012;-1.648;2022-07-04T00:10:05;101348.75;;;11.28;88.53
71109;BME280;59614;51.012;-1.648;2022-07-04T00:12:31;101339.94;;;11.25;88.59
71109;BME280;59614;51.012;-1.648;2022-07-04T00:14:57;101338.22;;;11.19;88.89
71109;BME280;59614;51.012;-1.648;2022-07-04T00:17:22;101347.03;;;11.15;88.79
71109;BME280;59614;51.012;-1.648;2022-07-04T00:19:48;101345.31;;;11.11;88.74
71109;BME280;59614;51.012;-1.648;2022-07-04T00:22:13;101338.25;;;11.04;88.78
71109;BME280;59614;51.012;-1.648;2022-07-04T00:24:39;101336.53;;;11.04;88.93
71109;BME280;59614;51.012;-1.648;2022-07-04T00:27:05;101345.38;;;10.97;89.03
71109;BME280;59614;51.012;-1.648;2022-07-04T00:29:30;101336.53;;;10.98;89.40
71109;BME280;59614;51.012;-1.648;2022-07-04T00:31:56;101343.59;;;11.01;89.25
71109;BME280;59614;51.012;-1.648;2022-07-04T00:34:21;101342.69;;;11.00;89.57
71109;BME280;59614;51.012;-1.648;2022-07-04T00:36:47;101340.94;;;10.97;89.48
71109;BME280;59614;51.012;-1.648;2022-07-04T00:39:12;101339.19;;;10.92;89.32
71109;BME280;59614;51.012;-1.648;2022-07-04T00:41:38;101347.13;;;10.90;89.20
71109;BME280;59614;51.012;-1.648;2022-07-04T00:44:06;101343.59;;;10.90;89.25
71109;BME280;59614;51.012;-1.648;2022-07-04T00:46:32;101334.78;;;10.92;89.65
71109;BME280;59614;51.012;-1.648;2022-07-04T00:48:58;101343.63;;;10.88;89.85
71109;BME280;59614;51.012;-1.648;2022-07-04T00:51:24;101340.09;;;10.86;89.83
71109;BME280;59614;51.012;-1.648;2022-07-04T00:53:51;101339.22;;;10.82;89.77
71109;BME280;59614;51.012;-1.648;2022-07-04T00:56:17;101334.81;;;10.86;89.35
71109;BME280;59614;51.012;-1.648;2022-07-04T00:58:43;101337.50;;;10.80;89.52
71109;BME280;59614;51.012;-1.648;2022-07-04T01:01:08;101329.56;;;10.77;89.56
71109;BME280;59614;51.012;-1.648;2022-07-04T01:03:33;101331.31;;;10.82;89.59
71109;BME280;59614;51.012;-1.648;2022-07-04T01:06:00;101333.06;;;10.85;89.79
71109;BME280;59614;51.012;-1.648;2022-07-04T01:08:26;101334.84;;;10.85;89.59
71109;BME280;59614;51.012;-1.648;2022-07-04T01:10:51;101331.25;;;10.93;89.80
71109;BME280;59614;51.012;-1.648;2022-07-04T01:13:24;101326.88;;;10.94;89.69
71109;BME280;59614;51.012;-1.648;2022-07-04T01:15:50;101323.34;;;10.96;89.81
71109;BME280;59614;51.012;-1.648;2022-07-04T01:18:16;101327.72;;;10.97;89.46
71109;BME280;59614;51.012;-1.648;2022-07-04T01:20:42;101321.56;;;10.92;89.70
71109;BME280;59614;51.012;-1.648;2022-07-04T01:23:08;101319.84;;;10.91;89.87
71109;BME280;59614;51.012;-1.648;2022-07-04T01:25:34;101316.31;;;10.91;89.72
71109;BME280;59614;51.012;-1.648;2022-07-04T01:27:59;101319.84;;;10.87;89.76
71109;BME280;59614;51.012;-1.648;2022-07-04T01:30:29;101318.97;;;10.86;90.07
71109;BME280;59614;51.012;-1.648;2022-07-04T01:32:55;101321.63;;;10.81;89.96
71109;BME280;59614;51.012;-1.648;2022-07-04T01:35:21;101319.88;;;10.79;90.35
71109;BME280;59614;51.012;-1.648;2022-07-04T01:37:47;101316.34;;;10.75;90.02
71109;BME280;59614;51.012;-1.648;2022-07-04T01:40:13;101310.19;;;10.75;89.70
71109;BME280;59614;51.012;-1.648;2022-07-04T01:42:40;101312.84;;;10.72;89.77
71109;BME280;59614;51.012;-1.648;2022-07-04T01:45:06;101311.13;;;10.68;90.00
71109;BME280;59614;51.012;-1.648;2022-07-04T01:47:32;101315.50;;;10.62;90.04
71109;BME280;59614;51.012;-1.648;2022-07-04T01:49:58;101308.47;;;10.60;90.20
71109;BME280;59614;51.012;-1.648;2022-07-04T01:52:23;101311.13;;;10.58;89.32
71109;BME280;59614;51.012;-1.648;2022-07-04T01:54:48;101308.50;;;10.50;89.68
71109;BME280;59614;51.012;-1.648;2022-07-04T01:57:14;101317.31;;;10.45;90.24
71109;BME280;59614;51.012;-1.648;2022-07-04T01:59:39;101313.81;;;10.41;90.08
71109;BME280;59614;51.012;-1.648;2022-07-04T02:02:24;101312.94;;;10.39;90.00
71109;BME280;59614;51.012;-1.648;2022-07-04T02:04:50;101322.56;;;10.31;90.03
71109;BME280;59614;51.012;-1.648;2022-07-04T02:07:16;101319.03;;;10.27;90.71
71109;BME280;59614;51.012;-1.648;2022-07-04T02:09:41;101319.06;;;10.21;90.44
71109;BME280;59614;51.012;-1.648;2022-07-04T02:12:07;101313.78;;;10.10;89.83
71109;BME280;59614;51.012;-1.648;2022-07-04T02:14:51;101313.78;;;10.01;90.43
71109;BME280;59614;51.012;-1.648;2022-07-04T02:17:17;101306.75;;;9.92;90.61
71109;BME280;59614;51.012;-1.648;2022-07-04T02:19:42;101303.22;;;9.93;90.46
71109;BME280;59614;51.012;-1.648;2022-07-04T02:22:08;101294.44;;;9.91;90.02
71109;BME280;59614;51.012;-1.648;2022-07-04T02:24:33;101305.00;;;9.85;89.81
71109;BME280;59614;51.012;-1.648;2022-07-04T02:26:59;101312.91;;;9.76;90.28
71109;BME280;59614;51.012;-1.648;2022-07-04T02:29:24;101298.81;;;9.69;90.60
71109;BME280;59614;51.012;-1.648;2022-07-04T02:31:50;101309.34;;;9.66;90.34
71109;BME280;59614;51.012;-1.648;2022-07-04T02:34:15;101304.97;;;9.66;90.64
71109;BME280;59614;51.012;-1.648;2022-07-04T02:36:41;101306.69;;;9.63;90.93
71109;BME280;59614;51.012;-1.648;2022-07-04T02:39:06;101304.94;;;9.54;91.32
71109;BME280;59614;51.012;-1.648;2022-07-04T02:41:33;101304.09;;;9.55;91.09
71109;BME280;59614;51.012;-1.648;2022-07-04T02:43:59;101308.47;;;9.59;90.99
71109;BME280;59614;51.012;-1.648;2022-07-04T02:46:25;101310.22;;;9.55;90.75
71109;BME280;59614;51.012;-1.648;2022-07-04T02:48:50;101312.00;;;9.55;90.90
71109;BME280;59614;51.012;-1.648;2022-07-04T02:51:16;101310.19;;;9.48;91.31
71109;BME280;59614;51.012;-1.648;2022-07-04T02:53:41;101302.28;;;9.52;91.46
71109;BME280;59614;51.012;-1.648;2022-07-04T02:56:07;101313.69;;;9.47;91.18
71109;BME280;59614;51.012;-1.648;2022-07-04T02:58:33;101304.03;;;9.41;91.50
71109;BME280;59614;51.012;-1.648;2022-07-04T03:00:59;101311.06;;;9.40;91.43
71109;BME280;59614;51.012;-1.648;2022-07-04T03:03:25;101310.16;;;9.35;91.92
71109;BME280;59614;51.012;-1.648;2022-07-04T03:05:51;101311.06;;;9.37;91.61
71109;BME280;59614;51.012;-1.648;2022-07-04T03:08:16;101310.19;;;9.38;91.44
71109;BME280;59614;51.012;-1.648;2022-07-04T03:10:42;101305.78;;;9.42;91.61
71109;BME280;59614;51.012;-1.648;2022-07-04T03:13:07;101305.81;;;9.45;91.16
71109;BME280;59614;51.012;-1.648;2022-07-04T03:15:33;101302.31;;;9.45;91.07
71109;BME280;59614;51.012;-1.648;2022-07-04T03:17:59;101303.16;;;9.40;91.05
71109;BME280;59614;51.012;-1.648;2022-07-04T03:20:24;101310.19;;;9.41;91.08
71109;BME280;59614;51.012;-1.648;2022-07-04T03:22:50;101314.56;;;9.35;90.94
71109;BME280;59614;51.012;-1.648;2022-07-04T03:25:17;101318.97;;;9.34;90.28
71109;BME280;59614;51.012;-1.648;2022-07-04T03:27:42;101310.13;;;9.26;90.92
71109;BME280;59614;51.012;-1.648;2022-07-04T03:30:08;101321.53;;;9.25;90.92
71109;BME280;59614;51.012;-1.648;2022-07-04T03:32:33;101313.63;;;9.16;91.07
71109;BME280;59614;51.012;-1.648;2022-07-04T03:34:59;101313.63;;;9.19;90.62
71109;BME280;59614;51.012;-1.648;2022-07-04T03:37:24;101317.16;;;9.21;91.28
71109;BME280;59614;51.012;-1.648;2022-07-04T03:39:50;101323.28;;;9.21;91.47
71109;BME280;59614;51.012;-1.648;2022-07-04T03:42:15;101322.44;;;9.21;91.36
71109;BME280;59614;51.012;-1.648;2022-07-04T03:44:41;101325.06;;;9.22;91.31
71109;BME280;59614;51.012;-1.648;2022-07-04T03:47:06;101320.66;;;9.21;91.41
71109;BME280;59614;51.012;-1.648;2022-07-04T03:49:31;101322.41;;;9.24;91.61
71109;BME280;59614;51.012;-1.648;2022-07-04T03:51:57;101323.28;;;9.21;91.02
71109;BME280;59614;51.012;-1.648;2022-07-04T03:54:22;101324.19;;;9.25;91.92
71109;BME280;59614;51.012;-1.648;2022-07-04T03:56:48;101333.84;;;9.24;91.48
71109;BME280;59614;51.012;-1.648;2022-07-04T03:59:13;101326.84;;;9.28;91.06
71109;BME280;59614;51.012;-1.648;2022-07-04T04:01:39;101323.31;;;9.31;91.48
71109;BME280;59614;51.012;-1.648;2022-07-04T04:04:04;101329.50;;;9.34;90.59
71109;BME280;59614;51.012;-1.648;2022-07-04T04:06:48;101333.88;;;9.35;91.47
71109;BME280;59614;51.012;-1.648;2022-07-04T04:09:13;101322.50;;;9.38;91.08
71109;BME280;59614;51.012;-1.648;2022-07-04T04:11:43;101328.63;;;9.41;90.89
71109;BME280;59614;51.012;-1.648;2022-07-04T04:14:09;101333.03;;;9.42;90.75
71109;BME280;59614;51.012;-1.648;2022-07-04T04:16:35;101329.53;;;9.45;90.63
71109;BME280;59614;51.012;-1.648;2022-07-04T04:19:00;101333.03;;;9.49;91.43
71109;BME280;59614;51.012;-1.648;2022-07-04T04:21:26;101336.56;;;9.49;91.40
71109;BME280;59614;51.012;-1.648;2022-07-04T04:23:51;101335.66;;;9.44;91.85
71109;BME280;59614;51.012;-1.648;2022-07-04T04:26:17;101343.63;;;9.55;91.33
71109;BME280;59614;51.012;-1.648;2022-07-04T04:28:42;101341.00;;;9.60;91.28
71109;BME280;59614;51.012;-1.648;2022-07-04T04:31:08;101347.13;;;9.63;91.13
71109;BME280;59614;51.012;-1.648;2022-07-04T04:33:35;101355.06;;;9.66;90.74
71109;BME280;59614;51.012;-1.648;2022-07-04T04:36:00;101348.91;;;9.70;90.46
71109;BME280;59614;51.012;-1.648;2022-07-04T04:38:26;101336.59;;;9.72;90.63
71109;BME280;59614;51.012;-1.648;2022-07-04T04:40:51;101342.78;;;9.79;90.11
71109;BME280;59614;51.012;-1.648;2022-07-04T04:43:17;101341.03;;;9.84;90.32
71109;BME280;59614;51.012;-1.648;2022-07-04T04:45:42;101349.81;;;9.88;90.52
71109;BME280;59614;51.012;-1.648;2022-07-04T04:48:07;101344.56;;;9.96;90.11
71109;BME280;59614;51.012;-1.648;2022-07-04T04:50:33;101341.03;;;9.98;90.23
71109;BME280;59614;51.012;-1.648;2022-07-04T04:52:58;101351.59;;;10.01;90.37
71109;BME280;59614;51.012;-1.648;2022-07-04T04:55:24;101356.00;;;10.09;89.98
71109;BME280;59614;51.012;-1.648;2022-07-04T04:57:49;101348.06;;;10.13;90.41
71109;BME280;59614;51.012;-1.648;2022-07-04T05:00:15;101349.84;;;10.24;90.12
71109;BME280;59614;51.012;-1.648;2022-07-04T05:02:40;101352.47;;;10.33;90.35
71109;BME280;59614;51.012;-1.648;2022-07-04T05:05:06;101352.50;;;10.44;90.23
71109;BME280;59614;51.012;-1.648;2022-07-04T05:07:32;101356.91;;;10.49;89.84
71109;BME280;59614;51.012;-1.648;2022-07-04T05:09:57;101356.00;;;10.54;89.53
71109;BME280;59614;51.012;-1.648;2022-07-04T05:12:25;101352.47;;;10.59;90.22
71109;BME280;59614;51.012;-1.648;2022-07-04T05:14:52;101353.38;;;10.46;89.69
71109;BME280;59614;51.012;-1.648;2022-07-04T05:17:17;101355.13;;;10.55;89.56
71109;BME280;59614;51.012;-1.648;2022-07-04T05:19:42;101359.50;;;10.63;89.75
71109;BME280;59614;51.012;-1.648;2022-07-04T05:22:08;101357.72;;;10.64;90.24
71109;BME280;59614;51.012;-1.648;2022-07-04T05:24:35;101357.72;;;10.75;89.62
71109;BME280;59614;51.012;-1.648;2022-07-04T05:27:07;101350.69;;;10.74;89.17
71109;BME280;59614;51.012;-1.648;2022-07-04T05:29:33;101350.63;;;10.95;89.04
71109;BME280;59614;51.012;-1.648;2022-07-04T05:31:58;101343.50;;;11.16;88.36
71109;BME280;59614;51.012;-1.648;2022-07-04T05:34:24;101343.44;;;11.32;88.26
71109;BME280;59614;51.012;-1.648;2022-07-04T05:36:49;101340.75;;;11.47;87.82
71109;BME280;59614;51.012;-1.648;2022-07-04T05:39:15;101329.28;;;11.45;88.15
71109;BME280;59614;51.012;-1.648;2022-07-04T05:41:41;101337.22;;;11.42;88.00
71109;BME280;59614;51.012;-1.648;2022-07-04T05:44:06;101338.94;;;11.51;87.98
71109;BME280;59614;51.012;-1.648;2022-07-04T05:46:32;101348.63;;;11.56;88.63
71109;BME280;59614;51.012;-1.648;2022-07-04T05:48:57;101340.53;;;11.77;88.05
71109;BME280;59614;51.012;-1.648;2022-07-04T05:51:23;101343.97;;;11.93;87.55
71109;BME280;59614;51.012;-1.648;2022-07-04T05:53:49;101345.75;;;11.90;87.77
71109;BME280;59614;51.012;-1.648;2022-07-04T05:56:15;101342.16;;;11.99;87.60
71109;BME280;59614;51.012;-1.648;2022-07-04T05:58:40;101347.47;;;11.99;87.25
71109;BME280;59614;51.012;-1.648;2022-07-04T06:01:06;101345.72;;;11.95;87.15
71109;BME280;59614;51.012;-1.648;2022-07-04T06:03:34;101349.25;;;11.99;86.74
71109;BME280;59614;51.012;-1.648;2022-07-04T06:06:02;101347.50;;;11.90;87.04
71109;BME280;59614;51.012;-1.648;2022-07-04T06:08:27;101349.28;;;11.93;87.06
71109;BME280;59614;51.012;-1.648;2022-07-04T06:10:53;101342.16;;;11.99;87.29
71109;BME280;59614;51.012;-1.648;2022-07-04T06:13:18;101348.25;;;12.12;86.84
71109;BME280;59614;51.012;-1.648;2022-07-04T06:15:44;101346.31;;;12.36;86.57
71109;BME280;59614;51.012;-1.648;2022-07-04T06:18:09;101344.38;;;12.50;85.23
71109;BME280;59614;51.012;-1.648;2022-07-04T06:20:35;101348.59;;;12.72;85.16
71109;BME280;59614;51.012;-1.648;2022-07-04T06:23:00;101344.13;;;12.78;83.95
71109;BME280;59614;51.012;-1.648;2022-07-04T06:25:26;101343.88;;;13.00;84.17
71109;BME280;59614;51.012;-1.648;2022-07-04T06:27:51;101350.78;;;13.13;83.99
71109;BME280;59614;51.012;-1.648;2022-07-04T06:30:18;101352.53;;;13.15;83.91
71109;BME280;59614;51.012;-1.648;2022-07-04T06:32:55;101353.38;;;13.18;84.22
71109;BME280;59614;51.012;-1.648;2022-07-04T06:35:26;101354.09;;;13.33;83.72
71109;BME280;59614;51.012;-1.648;2022-07-04T06:38:13;101353.75;;;13.59;81.43
71109;BME280;59614;51.012;-1.648;2022-07-04T06:40:39;101345.53;;;13.78;81.30
71109;BME280;59614;51.012;-1.648;2022-07-04T06:43:05;101346.97;;;13.99;79.99
71109;BME280;59614;51.012;-1.648;2022-07-04T06:45:31;101341.63;;;14.00;80.39
71109;BME280;59614;51.012;-1.648;2022-07-04T06:47:57;101343.97;;;14.19;79.77
71109;BME280;59614;51.012;-1.648;2022-07-04T06:50:23;101337.81;;;14.18;79.42
71109;BME280;59614;51.012;-1.648;2022-07-04T06:52:48;101339.81;;;14.56;79.51
71109;BME280;59614;51.012;-1.648;2022-07-04T06:55:14;101336.56;;;14.90;78.04
71109;BME280;59614;51.012;-1.648;2022-07-04T06:57:39;101345.91;;;15.09;76.45
71109;BME280;59614;51.012;-1.648;2022-07-04T07:00:06;101340.69;;;15.05;77.00
71109;BME280;59614;51.012;-1.648;2022-07-04T07:02:36;101349.03;;;14.85;78.08
71109;BME280;59614;51.012;-1.648;2022-07-04T07:05:03;101341.88;;;14.88;77.72
71109;BME280;59614;51.012;-1.648;2022-07-04T07:07:29;101351.94;;;14.74;77.85
71109;BME280;59614;51.012;-1.648;2022-07-04T07:09:55;101342.69;;;14.92;78.00
71109;BME280;59614;51.012;-1.648;2022-07-04T07:12:21;101343.63;;;14.91;77.19
71109;BME280;59614;51.012;-1.648;2022-07-04T07:14:49;101349.00;;;14.88;76.54
71109;BME280;59614;51.012;-1.648;2022-07-04T07:17:14;101349.38;;;15.13;76.66
71109;BME280;59614;51.012;-1.648;2022-07-04T07:19:41;101361.25;;;15.39;76.66
71109;BME280;59614;51.012;-1.648;2022-07-04T07:22:08;101360.50;;;15.73;74.62
71109;BME280;59614;51.012;-1.648;2022-07-04T07:24:34;101351.47;;;16.18;73.55
71109;BME280;59614;51.012;-1.648;2022-07-04T07:27:00;101345.34;;;16.14;74.13
71109;BME280;59614;51.012;-1.648;2022-07-04T07:29:25;101343.44;;;16.19;74.01
71109;BME280;59614;51.012;-1.648;2022-07-04T07:31:51;101348.91;;;16.13;74.74
71109;BME280;59614;51.012;-1.648;2022-07-04T07:34:16;101359.97;;;15.98;74.74
71109;BME280;59614;51.012;-1.648;2022-07-04T07:36:42;101348.06;;;16.11;73.46
71109;BME280;59614;51.012;-1.648;2022-07-04T07:39:07;101354.84;;;16.25;73.16
71109;BME280;59614;51.012;-1.648;2022-07-04T07:41:32;101356.16;;;16.43;72.90
71109;BME280;59614;51.012;-1.648;2022-07-04T07:43:58;101355.72;;;16.60;72.89
71109;BME280;59614;51.012;-1.648;2022-07-04T07:46:23;101364.59;;;16.95;71.43
71109;BME280;59614;51.012;-1.648;2022-07-04T07:48:49;101361.72;;;17.01;71.16
71109;BME280;59614;51.012;-1.648;2022-07-04T07:51:14;101361.25;;;16.85;70.71
71109;BME280;59614;51.012;-1.648;2022-07-04T07:53:42;101363.72;;;16.93;71.64
71109;BME280;59614;51.012;-1.648;2022-07-04T07:56:08;101360.13;;;17.27;69.83
71109;BME280;59614;51.012;-1.648;2022-07-04T07:58:33;101367.56;;;17.16;70.19
71109;BME280;59614;51.012;-1.648;2022-07-04T08:00:59;101369.50;;;17.10;69.44
71109;BME280;59614;51.012;-1.648;2022-07-04T08:03:25;101366.25;;;16.99;69.60
71109;BME280;59614;51.012;-1.648;2022-07-04T08:06:09;101364.94;;;18.02;65.41
71109;BME280;59614;51.012;-1.648;2022-07-04T08:08:35;101350.94;;;18.48;64.20
71109;BME280;59614;51.012;-1.648;2022-07-04T08:11:01;101353.66;;;18.73;61.85
71109;BME280;59614;51.012;-1.648;2022-07-04T08:13:27;101357.81;;;18.30;64.31
71109;BME280;59614;51.012;-1.648;2022-07-04T08:15:53;101362.94;;;18.09;66.55
71109;BME280;59614;51.012;-1.648;2022-07-04T08:18:18;101367.03;;;17.91;64.80
71109;BME280;59614;51.012;-1.648;2022-07-04T08:20:44;101370.84;;;17.84;64.03
71109;BME280;59614;51.012;-1.648;2022-07-04T08:23:10;101371.72;;;17.56;64.69
71109;BME280;59614;51.012;-1.648;2022-07-04T08:25:35;101359.94;;;17.63;65.05
71109;BME280;59614;51.012;-1.648;2022-07-04T08:28:01;101369.47;;;17.70;65.86
71109;BME280;59614;51.012;-1.648;2022-07-04T08:30:27;101367.09;;;17.61;65.45
71109;BME280;59614;51.012;-1.648;2022-07-04T08:32:52;101377.16;;;17.81;64.69
71109;BME280;59614;51.012;-1.648;2022-07-04T08:35:18;101372.81;;;17.49;64.50
71109;BME280;59614;51.012;-1.648;2022-07-04T08:37:43;101366.00;;;17.38;66.14
71109;BME280;59614;51.012;-1.648;2022-07-04T08:40:09;101364.91;;;18.31;62.29
71109;BME280;59614;51.012;-1.648;2022-07-04T08:42:37;101370.63;;;19.69;59.22
71109;BME280;59614;51.012;-1.648;2022-07-04T08:45:04;101362.78;;;19.64;57.78
71109;BME280;59614;51.012;-1.648;2022-07-04T08:47:33;101370.69;;;19.20;58.38
71109;BME280;59614;51.012;-1.648;2022-07-04T08:50:09;101363.66;;;19.65;59.73
71109;BME280;59614;51.012;-1.648;2022-07-04T08:52:41;101355.34;;;18.76;59.32
71109;BME280;59614;51.012;-1.648;2022-07-04T08:55:08;101363.28;;;18.77;60.24
71109;BME280;59614;51.012;-1.648;2022-07-04T08:57:53;101359.09;;;19.90;56.36
71109;BME280;59614;51.012;-1.648;2022-07-04T09:00:38;101350.97;;;20.14;55.56
71109;BME280;59614;51.012;-1.648;2022-07-04T09:03:05;101355.88;;;19.35;58.75
71109;BME280;59614;51.012;-1.648;2022-07-04T09:05:31;101343.31;;;18.88;59.16
71109;BME280;59614;51.012;-1.648;2022-07-04T09:08:00;101336.34;;;19.09;59.58
71109;BME280;59614;51.012;-1.648;2022-07-04T09:10:26;101345.63;;;18.98;60.24
71109;BME280;59614;51.012;-1.648;2022-07-04T09:12:52;101349.22;;;18.72;58.75
71109;BME280;59614;51.012;-1.648;2022-07-04T09:15:18;101347.81;;;18.62;57.93
71109;BME280;59614;51.012;-1.648;2022-07-04T09:17:45;101343.53;;;19.76;55.66
71109;BME280;59614;51.012;-1.648;2022-07-04T09:20:22;101342.94;;;19.92;55.06
71109;BME280;59614;51.012;-1.648;2022-07-04T09:22:49;101344.00;;;19.42;57.74
71109;BME280;59614;51.012;-1.648;2022-07-04T09:25:16;101343.38;;;18.86;57.27
71109;BME280;59614;51.012;-1.648;2022-07-04T09:27:44;101335.25;;;18.39;58.73
71109;BME280;59614;51.012;-1.648;2022-07-04T09:30:11;101337.88;;;18.65;56.64
71109;BME280;59614;51.012;-1.648;2022-07-04T09:35:14;101336.63;;;20.98;49.54
71109;BME280;59614;51.012;-1.648;2022-07-04T09:37:43;101342.72;;;20.82;48.20
71109;BME280;59614;51.012;-1.648;2022-07-04T09:40:21;101336.28;;;21.82;49.39
71109;BME280;59614;51.012;-1.648;2022-07-04T09:42:47;101335.81;;;21.17;50.12
71109;BME280;59614;51.012;-1.648;2022-07-04T09:45:12;101336.94;;;20.71;52.93
71109;BME280;59614;51.012;-1.648;2022-07-04T09:47:40;101341.50;;;20.69;51.37
71109;BME280;59614;51.012;-1.648;2022-07-04T09:50:12;101336.38;;;20.83;51.58
71109;BME280;59614;51.012;-1.648;2022-07-04T09:55:28;101340.56;;;21.29;49.98
71109;BME280;59614;51.012;-1.648;2022-07-04T09:57:59;101333.38;;;21.87;47.08
71109;BME280;59614;51.012;-1.648;2022-07-04T10:00:27;101334.19;;;21.89;48.51
71109;BME280;59614;51.012;-1.648;2022-07-04T10:02:55;101333.03;;;21.56;50.07
71109;BME280;59614;51.012;-1.648;2022-07-04T10:05:23;101330.06;;;21.05;50.19
71109;BME280;59614;51.012;-1.648;2022-07-04T10:07:49;101333.97;;;20.98;48.80
71109;BME280;59614;51.012;-1.648;2022-07-04T10:10:27;101329.47;;;21.18;47.21
71109;BME280;59614;51.012;-1.648;2022-07-04T10:13:04;101322.16;;;21.59;48.01
71109;BME280;59614;51.012;-1.648;2022-07-04T10:15:31;101317.06;;;22.09;47.58
71109;BME280;59614;51.012;-1.648;2022-07-04T10:17:56;101310.34;;;22.18;47.54
71109;BME280;59614;51.012;-1.648;2022-07-04T10:20:22;101308.91;;;22.11;46.21
71109;BME280;59614;51.012;-1.648;2022-07-04T10:22:48;101310.91;;;22.42;46.34
71109;BME280;59614;51.012;-1.648;2022-07-04T10:25:14;101311.91;;;21.68;47.03
71109;BME280;59614;51.012;-1.648;2022-07-04T10:27:40;101309.13;;;21.88;47.53
71109;BME280;59614;51.012;-1.648;2022-07-04T10:30:09;101300.16;;;22.76;45.96
71109;BME280;59614;51.012;-1.648;2022-07-04T10:32:36;101299.34;;;22.91;47.15
71109;BME280;59614;51.012;-1.648;2022-07-04T10:35:04;101296.44;;;23.76;45.50
71109;BME280;59614;51.012;-1.648;2022-07-04T10:37:58;101297.38;;;24.21;42.12
71109;BME280;59614;51.012;-1.648;2022-07-04T10:45:51;101301.41;;;23.68;43.68
71109;BME280;59614;51.012;-1.648;2022-07-04T10:48:22;101303.69;;;22.25;46.01
71109;BME280;59614;51.012;-1.648;2022-07-04T10:51:04;101306.06;;;22.66;45.65
71109;BME280;59614;51.012;-1.648;2022-07-04T10:53:32;101297.38;;;22.61;46.23
71109;BME280;59614;51.012;-1.648;2022-07-04T10:58:45;101290.25;;;23.90;42.90
71109;BME280;59614;51.012;-1.648;2022-07-04T11:01:11;101293.63;;;23.94;42.24
71109;BME280;59614;51.012;-1.648;2022-07-04T11:03:50;101303.41;;;22.49;44.27
71109;BME280;59614;51.012;-1.648;2022-07-04T11:09:24;101306.44;;;22.76;41.83
71109;BME280;59614;51.012;-1.648;2022-07-04T11:18:00;101303.78;;;24.35;40.97
71109;BME280;59614;51.012;-1.648;2022-07-04T11:20:00;101299.66;;;25.31;39.52
71109;BME280;59614;51.012;-1.648;2022-07-04T11:22:26;101297.75;;;24.46;39.79
71109;BME280;59614;51.012;-1.648;2022-07-04T11:24:52;101297.41;;;23.43;41.24
71109;BME280;59614;51.012;-1.648;2022-07-04T11:27:20;101289.69;;;24.15;40.19
71109;BME280;59614;51.012;-1.648;2022-07-04T11:29:53;101296.16;;;24.72;41.67
71109;BME280;59614;51.012;-1.648;2022-07-04T11:32:20;101300.13;;;24.36;40.67
71109;BME280;59614;51.012;-1.648;2022-07-04T11:34:46;101303.72;;;24.51;39.88
71109;BME280;59614;51.012;-1.648;2022-07-04T11:37:12;101295.94;;;23.53;40.86
71109;BME280;59614;51.012;-1.648;2022-07-04T11:39:38;101304.13;;;23.20;42.04
71109;BME280;59614;51.012;-1.648;2022-07-04T11:42:04;101302.13;;;23.23;44.65
71109;BME280;59614;51.012;-1.648;2022-07-04T11:44:48;101307.44;;;25.08;42.60
71109;BME280;59614;51.012;-1.648;2022-07-04T11:47:42;101289.03;;;24.71;38.41
71109;BME280;59614;51.012;-1.648;2022-07-04T11:50:13;101285.47;;;24.26;40.71
71109;BME280;59614;51.012;-1.648;2022-07-04T11:52:47;101288.44;;;23.74;39.14
71109;BME280;59614;51.012;-1.648;2022-07-04T11:55:14;101298.91;;;23.33;43.04
71109;BME280;59614;51.012;-1.648;2022-07-04T11:57:45;101299.97;;;22.96;43.40
71109;BME280;59614;51.012;-1.648;2022-07-04T12:00:16;101294.81;;;22.92;42.21
71109;BME280;59614;51.012;-1.648;2022-07-04T12:02:42;101295.78;;;23.24;43.36
71109;BME280;59614;51.012;-1.648;2022-07-04T12:05:10;101306.88;;;22.51;44.55
71109;BME280;59614;51.012;-1.648;2022-07-04T12:07:38;101298.56;;;23.55;43.84
71109;BME280;59614;51.012;-1.648;2022-07-04T12:10:21;101296.81;;;23.38;42.73
71109;BME280;59614;51.012;-1.648;2022-07-04T12:13:01;101293.69;;;23.46;44.60
71109;BME280;59614;51.012;-1.648;2022-07-04T12:15:44;101305.84;;;22.54;42.45
71109;BME280;59614;51.012;-1.648;2022-07-04T12:18:21;101296.72;;;22.74;44.66
71109;BME280;59614;51.012;-1.648;2022-07-04T12:20:48;101290.22;;;23.43;45.72
71109;BME280;59614;51.012;-1.648;2022-07-04T12:23:14;101299.56;;;23.84;42.75
71109;BME280;59614;51.012;-1.648;2022-07-04T12:25:39;101295.75;;;23.72;42.71
71109;BME280;59614;51.012;-1.648;2022-07-04T12:28:13;101292.44;;;24.44;41.32
71109;BME280;59614;51.012;-1.648;2022-07-04T12:30:52;101299.25;;;23.26;43.39
71109;BME280;59614;51.012;-1.648;2022-07-04T12:33:22;101303.66;;;22.78;45.55
71109;BME280;59614;51.012;-1.648;2022-07-04T12:35:52;101294.91;;;23.56;42.30
71109;BME280;59614;51.012;-1.648;2022-07-04T12:38:34;101297.06;;;22.83;41.54
71109;BME280;59614;51.012;-1.648;2022-07-04T12:41:02;101298.72;;;22.52;44.92
71109;BME280;59614;51.012;-1.648;2022-07-04T12:43:57;101306.53;;;22.22;45.39
71109;BME280;59614;51.012;-1.648;2022-07-04T12:46:29;101295.13;;;22.70;44.92
71109;BME280;59614;51.012;-1.648;2022-07-04T12:48:57;101296.25;;;23.79;41.56
71109;BME280;59614;51.012;-1.648;2022-07-04T12:51:25;101297.41;;;23.27;43.74
71109;BME280;59614;51.012;-1.648;2022-07-04T12:53:53;101296.41;;;22.96;43.85
71109;BME280;59614;51.012;-1.648;2022-07-04T12:56:38;101300.63;;;22.50;45.12
71109;BME280;59614;51.012;-1.648;2022-07-04T12:59:06;101306.16;;;21.75;47.95
71109;BME280;59614;51.012;-1.648;2022-07-04T13:01:32;101301.81;;;22.27;47.51
71109;BME280;59614;51.012;-1.648;2022-07-04T13:03:58;101300.47;;;22.87;45.58
71109;BME280;59614;51.012;-1.648;2022-07-04T13:06:24;101294.31;;;22.85;45.16